Terminal Aerodrome Forecast
Issued by NWS

Home | Current Version | Previous Version | Text Only | Print | Product List | Glossary On
Versions: 1 2 3 4 5 6 7 8 9 10 11 12 13 14 15
000
FTUS42 TJSJ 312000 AAA
TAFJBQ
TAF AMD
TJBQ 312030Z 3121/0118 30006KT P6SM VCTS FEW025CB BKN050 BKN100
      TEMPO 3121/3122 VRB12KT -TSRA SCT022CB BKN035
     FM312230 10004KT P6SM FEW030 SCT060 SCT120
     FM011730 VRB04KT P6SM VCTS FEW025CB SCT040=

USA.gov is the U.S. government's official web portal to all federal, state and local government web resources and services.